Terminal Aerodrome Forecast
Issued by NWS Charleston, WV

Home | Current Version | Previous Version | Text Only | Print | Product List | Glossary On
Versions: 1 2 3 4 5 6 7 8 9 10 11 12 13 14 15 16 17 18 19 20 21 22
000
FTUS41 KRLX 030227 AAB
TAFBKW
TAF AMD
KBKW 030227Z 0302/0324 34003KT P6SM BKN040
     FM030500 00000KT 6SM BR SCT040
     FM030800 00000KT 4SM BR SCT045
     FM031300 VRB03KT P6SM SCT025
     FM031600 32005KT P6SM VCTS BKN035CB=

USA.gov is the U.S. government's official web portal to all federal, state and local government web resources and services.